createdAt,value
2017-11-08T00:01:55.350Z,7.90
2017-11-08T00:04:37.645Z,7.90
2017-11-08T00:07:09.469Z,7.90
2017-11-08T00:09:37.063Z,7.90
2017-11-08T00:12:04.604Z,7.90
2017-11-08T00:14:42.828Z,7.80
2017-11-08T00:17:10.408Z,7.90
2017-11-08T00:19:38.003Z,7.90
2017-11-08T00:22:11.204Z,7.90
2017-11-08T00:24:52.457Z,7.80
2017-11-08T00:27:20.000Z,7.80
2017-11-08T00:29:47.581Z,7.80
2017-11-08T00:32:15.125Z,7.80
2017-11-08T00:34:53.342Z,7.80
2017-11-08T00:37:23.208Z,7.80
2017-11-08T00:39:50.797Z,7.80
2017-11-08T00:42:18.586Z,7.80
2017-11-08T00:45:03.170Z,7.70
2017-11-08T00:47:32.860Z,7.70
2017-11-08T00:50:01.406Z,7.70
2017-11-08T00:52:28.949Z,7.70
2017-11-08T00:55:11.819Z,7.70
2017-11-08T00:57:47.840Z,7.70
2017-11-08T01:00:16.345Z,7.60
2017-11-08T01:02:43.889Z,7.60
2017-11-08T01:05:11.465Z,7.70
2017-11-08T01:07:39.208Z,7.60
2017-11-08T01:10:06.806Z,7.60
2017-11-08T01:12:36.481Z,7.70
2017-11-08T01:15:05.201Z,7.60
2017-11-08T01:17:32.747Z,7.60
2017-11-08T01:20:15.341Z,7.60
2017-11-08T01:22:43.798Z,7.60
2017-11-08T01:25:11.380Z,7.60
2017-11-08T01:27:38.930Z,7.60
2017-11-08T01:30:20.191Z,7.60
2017-11-08T01:32:47.844Z,7.60
2017-11-08T01:35:17.165Z,7.50
2017-11-08T01:37:46.540Z,7.60
2017-11-08T01:40:26.226Z,7.50
2017-11-08T01:42:53.763Z,7.50
2017-11-08T01:45:21.357Z,7.50
2017-11-08T01:47:48.900Z,7.50
2017-11-08T01:50:37.904Z,7.50
2017-11-08T01:53:05.453Z,7.50
2017-11-08T01:55:33.042Z,7.50
2017-11-08T01:58:01.593Z,7.50
2017-11-08T02:00:48.989Z,7.50
2017-11-08T02:03:16.533Z,7.50
2017-11-08T02:05:55.669Z,7.50
2017-11-08T02:08:23.251Z,7.40
2017-11-08T02:10:50.797Z,7.50
2017-11-08T02:13:18.374Z,7.40
2017-11-08T02:15:52.300Z,7.50
2017-11-08T02:18:25.732Z,7.40
2017-11-08T02:20:57.189Z,7.40
2017-11-08T02:23:24.779Z,7.40
2017-11-08T02:26:07.884Z,7.40
2017-11-08T02:28:35.473Z,7.40
2017-11-08T02:31:03.485Z,7.40
2017-11-08T02:33:32.535Z,7.40
2017-11-08T02:36:00.083Z,7.40
2017-11-08T02:38:29.037Z,7.40
2017-11-08T02:41:13.294Z,7.40
2017-11-08T02:43:41.017Z,7.30
2017-11-08T02:46:08.566Z,7.40
2017-11-08T02:48:36.154Z,7.30
2017-11-08T02:51:03.713Z,7.30
2017-11-08T02:53:31.302Z,7.30
2017-11-08T02:56:10.175Z,7.30
2017-11-08T02:58:37.757Z,7.30
2017-11-08T03:01:05.302Z,7.30
2017-11-08T03:03:42.806Z,7.30
2017-11-08T03:06:12.155Z,7.30
2017-11-08T03:08:39.738Z,7.30
2017-11-08T03:11:07.284Z,7.30
2017-11-08T03:13:34.873Z,7.20
2017-11-08T03:16:02.413Z,7.30
2017-11-08T03:18:30.000Z,7.20
2017-11-08T03:20:59.426Z,7.20
2017-11-08T03:23:27.012Z,7.20
2017-11-08T03:26:05.842Z,7.20
2017-11-08T03:28:35.217Z,7.20
2017-11-08T03:31:03.526Z,7.20
2017-11-08T03:33:31.113Z,7.20
2017-11-08T03:35:58.653Z,7.20
2017-11-08T03:38:26.249Z,7.20
2017-11-08T03:40:53.788Z,7.20
2017-11-08T03:43:21.373Z,7.10
2017-11-08T03:45:48.915Z,7.20
2017-11-08T03:48:16.502Z,7.10
2017-11-08T03:50:44.048Z,7.10
2017-11-08T03:53:13.134Z,7.10
2017-11-08T03:56:02.801Z,7.10
2017-11-08T03:58:34.281Z,7.10
2017-11-08T04:01:03.105Z,7.10
2017-11-08T04:03:31.454Z,7.10
2017-11-08T04:05:58.990Z,7.10
2017-11-08T04:08:26.577Z,7.10
2017-11-08T04:10:54.129Z,7.10
2017-11-08T04:13:23.541Z,7.10
2017-11-08T04:16:00.141Z,7.10
2017-11-08T04:18:28.513Z,7.00
2017-11-08T04:20:56.935Z,7.10
2017-11-08T04:23:24.801Z,7.00
2017-11-08T04:26:02.399Z,7.00
2017-11-08T04:28:29.988Z,7.00
2017-11-08T04:30:57.529Z,7.00
2017-11-08T04:33:27.124Z,7.00
2017-11-08T04:35:54.666Z,7.00
2017-11-08T04:38:22.259Z,7.00
2017-11-08T04:40:49.804Z,7.00
2017-11-08T04:43:20.025Z,7.00
2017-11-08T04:46:09.397Z,7.00
2017-11-08T04:48:36.978Z,6.90
2017-11-08T04:51:05.446Z,6.90
2017-11-08T04:53:32.985Z,6.90
2017-11-08T04:56:00.569Z,6.90
2017-11-08T04:58:28.111Z,6.80
2017-11-08T05:00:55.686Z,6.80
2017-11-08T05:03:23.236Z,6.80
2017-11-08T05:05:51.734Z,6.80
2017-11-08T05:08:19.268Z,6.80
2017-11-08T05:10:46.842Z,6.80
2017-11-08T05:13:16.909Z,6.80
2017-11-08T05:15:53.086Z,6.80
2017-11-08T05:18:20.666Z,6.80
2017-11-08T05:20:50.660Z,6.80
2017-11-08T05:23:19.348Z,6.80
2017-11-08T05:25:57.575Z,6.70
2017-11-08T05:28:25.471Z,6.80
2017-11-08T05:30:53.005Z,6.70
2017-11-08T05:33:27.953Z,6.70
2017-11-08T05:36:00.834Z,6.70
2017-11-08T05:38:28.414Z,6.70
2017-11-08T05:40:55.945Z,6.70
2017-11-08T05:43:34.303Z,6.70
2017-11-08T05:46:05.834Z,6.70
2017-11-08T05:48:33.418Z,6.70
2017-11-08T05:51:01.720Z,6.70
2017-11-08T05:53:30.069Z,6.60
2017-11-08T05:55:58.326Z,6.60
2017-11-08T05:58:26.912Z,6.60
2017-11-08T06:00:54.445Z,6.60
2017-11-08T06:03:22.016Z,6.60
2017-11-08T06:06:06.887Z,6.60
2017-11-08T06:08:35.490Z,6.60
2017-11-08T06:11:03.025Z,6.60
2017-11-08T06:13:30.614Z,6.60
2017-11-08T06:16:06.304Z,6.60
2017-11-08T06:18:33.878Z,6.50
2017-11-08T06:21:01.421Z,6.50
2017-11-08T06:23:29.759Z,6.50
2017-11-08T06:25:57.292Z,6.50
2017-11-08T06:28:27.464Z,6.50
2017-11-08T06:30:55.909Z,6.50
2017-11-08T06:33:23.495Z,6.50
2017-11-08T06:35:52.842Z,6.50
2017-11-08T06:38:20.488Z,6.50
2017-11-08T06:40:48.033Z,6.40
2017-11-08T06:43:16.372Z,6.40
2017-11-08T06:45:53.843Z,6.40
2017-11-08T06:48:21.445Z,6.40
2017-11-08T06:50:48.984Z,6.40
2017-11-08T06:53:16.533Z,6.40
2017-11-08T06:55:57.209Z,6.40
2017-11-08T06:58:26.466Z,5.70
2017-11-08T07:00:54.046Z,5.60
2017-11-08T07:03:23.399Z,5.80
2017-11-08T07:05:51.745Z,6.10
2017-11-08T07:08:19.281Z,6.10
2017-11-08T07:10:47.025Z,6.10
2017-11-08T07:13:14.568Z,6.20
2017-11-08T07:16:03.597Z,6.20
2017-11-08T07:18:36.244Z,6.20
2017-11-08T07:21:03.820Z,6.20
2017-11-08T07:23:31.366Z,6.20
2017-11-08T07:25:59.454Z,6.20
2017-11-08T07:28:28.118Z,6.30
2017-11-08T07:30:55.697Z,6.30
2017-11-08T07:33:23.250Z,6.30
2017-11-08T07:35:57.770Z,6.30
2017-11-08T07:38:25.304Z,6.30
2017-11-08T07:40:55.781Z,6.40
2017-11-08T07:43:23.329Z,6.40
2017-11-08T07:46:05.214Z,6.40
2017-11-08T07:48:32.757Z,6.40
2017-11-08T07:51:00.374Z,6.40
2017-11-08T07:53:27.913Z,6.50
2017-11-08T07:56:01.226Z,6.50
2017-11-08T07:58:37.199Z,6.60
2017-11-08T08:01:05.220Z,6.60
2017-11-08T08:03:32.755Z,6.70
2017-11-08T08:06:02.526Z,6.70
2017-11-08T08:08:43.956Z,6.70
2017-11-08T08:11:26.245Z,6.80
2017-11-08T08:13:58.517Z,6.90
2017-11-08T08:16:26.858Z,6.90
2017-11-08T08:18:54.621Z,6.90
2017-11-08T08:21:24.106Z,7.00
2017-11-08T08:23:51.639Z,7.00
2017-11-08T08:26:24.988Z,6.90
2017-11-08T08:28:56.961Z,6.80
2017-11-08T08:31:30.006Z,6.70
2017-11-08T08:33:57.555Z,6.60
2017-11-08T08:36:25.140Z,6.60
2017-11-08T08:38:57.394Z,6.60
2017-11-08T08:41:28.028Z,6.60
2017-11-08T08:43:56.542Z,6.60
2017-11-08T08:46:24.129Z,6.60
2017-11-08T08:48:52.680Z,6.60
2017-11-08T08:51:20.255Z,6.60
2017-11-08T08:53:47.789Z,6.60
2017-11-08T08:56:15.368Z,6.60
2017-11-08T08:58:42.912Z,6.60
2017-11-08T09:01:10.547Z,6.60
2017-11-08T09:03:38.085Z,6.60
2017-11-08T09:06:05.620Z,6.60
2017-11-08T09:08:33.965Z,6.60
2017-11-08T09:11:01.562Z,6.60
2017-11-08T09:13:32.043Z,6.60
2017-11-08T09:15:59.577Z,6.60
2017-11-08T09:18:27.160Z,6.60
2017-11-08T09:20:54.705Z,6.60
2017-11-08T09:23:26.680Z,6.70
2017-11-08T09:25:54.228Z,6.70
2017-11-08T09:28:21.815Z,6.70
2017-11-08T09:30:49.361Z,6.70
2017-11-08T09:33:16.936Z,6.70
2017-11-08T09:35:59.337Z,6.70
2017-11-08T09:38:26.913Z,6.70
2017-11-08T09:40:54.465Z,6.70
2017-11-08T09:43:22.051Z,6.70
2017-11-08T09:45:58.896Z,6.70
2017-11-08T09:48:26.482Z,6.70
2017-11-08T09:50:54.023Z,6.70
2017-11-08T09:53:21.612Z,6.70
2017-11-08T09:55:59.023Z,6.80
2017-11-08T09:58:26.604Z,6.80
2017-11-08T10:00:57.098Z,6.70
2017-11-08T10:03:25.460Z,6.80
2017-11-08T10:05:53.003Z,6.70
2017-11-08T10:08:24.852Z,6.70
2017-11-08T10:10:58.141Z,6.80
2017-11-08T10:13:26.536Z,6.70
2017-11-08T10:15:54.175Z,6.80
2017-11-08T10:18:22.790Z,6.80
2017-11-08T10:20:51.109Z,6.80
2017-11-08T10:23:19.482Z,6.80
2017-11-08T10:25:47.849Z,6.90
2017-11-08T10:28:16.198Z,6.90
2017-11-08T10:30:43.740Z,6.90
2017-11-08T10:33:11.315Z,6.90
2017-11-08T10:35:49.709Z,6.90
2017-11-08T10:38:20.559Z,7.00
2017-11-08T10:40:48.325Z,6.90
2017-11-08T10:43:15.870Z,7.00
2017-11-08T10:45:59.670Z,7.00
2017-11-08T10:48:28.053Z,7.00
2017-11-08T10:50:56.934Z,7.00
2017-11-08T10:53:24.483Z,7.00
2017-11-08T10:55:56.953Z,7.00
2017-11-08T10:58:26.275Z,7.10
2017-11-08T11:00:54.742Z,7.10
2017-11-08T11:03:27.196Z,7.10
2017-11-08T11:05:55.509Z,7.10
2017-11-08T11:08:23.086Z,7.10
2017-11-08T11:10:50.632Z,7.10
2017-11-08T11:13:18.213Z,7.10
2017-11-08T11:15:59.927Z,7.10
2017-11-08T11:18:27.508Z,7.10
2017-11-08T11:20:55.056Z,7.10
2017-11-08T11:23:23.411Z,7.20
2017-11-08T11:25:50.954Z,7.10
2017-11-08T11:28:18.537Z,7.20
2017-11-08T11:30:51.722Z,7.20
2017-11-08T11:33:20.262Z,7.20
2017-11-08T11:35:52.079Z,7.30
2017-11-08T11:38:19.654Z,7.30
2017-11-08T11:40:51.254Z,7.30
2017-11-08T11:43:18.849Z,7.30
2017-11-08T11:45:47.886Z,7.30
2017-11-08T11:48:17.521Z,7.30
2017-11-08T11:50:45.401Z,7.30
2017-11-08T11:53:13.954Z,7.30
2017-11-08T11:55:59.766Z,7.30
2017-11-08T11:58:27.305Z,7.30
2017-11-08T12:00:55.084Z,7.30
2017-11-08T12:03:25.973Z,7.30
2017-11-08T12:05:53.558Z,7.30
2017-11-08T12:08:21.095Z,7.30
2017-11-08T12:10:49.505Z,7.30
2017-11-08T12:13:17.045Z,7.30
2017-11-08T12:15:48.562Z,7.30
2017-11-08T12:18:16.395Z,7.30
2017-11-08T12:20:44.073Z,7.40
2017-11-08T12:23:12.542Z,7.30
2017-11-08T12:25:55.601Z,7.40
2017-11-08T12:28:39.166Z,7.30
2017-11-08T12:31:17.065Z,7.40
2017-11-08T12:33:46.427Z,7.40
2017-11-08T12:36:14.179Z,7.40
2017-11-08T12:38:42.901Z,7.40
2017-11-08T12:41:13.649Z,7.40
2017-11-08T12:43:44.893Z,7.40
2017-11-08T12:46:12.456Z,7.40
2017-11-08T12:48:40.817Z,7.40
2017-11-08T12:51:08.640Z,7.40
2017-11-08T12:53:36.252Z,7.40
2017-11-08T12:56:03.794Z,7.40
2017-11-08T12:58:31.325Z,7.40
2017-11-08T13:00:58.910Z,7.40
2017-11-08T13:03:26.457Z,7.40
2017-11-08T13:05:59.751Z,7.50
2017-11-08T13:08:27.298Z,7.40
2017-11-08T13:11:06.624Z,7.40
2017-11-08T13:13:34.300Z,7.40
2017-11-08T13:16:06.617Z,7.40
2017-11-08T13:18:34.244Z,7.40
2017-11-08T13:21:01.864Z,7.40
2017-11-08T13:23:31.823Z,7.40
2017-11-08T13:26:04.854Z,7.40
2017-11-08T13:28:33.161Z,7.40
2017-11-08T13:31:00.725Z,7.50
2017-11-08T13:33:28.258Z,7.40
2017-11-08T13:36:09.427Z,7.50
2017-11-08T13:38:37.017Z,7.50
2017-11-08T13:41:04.605Z,7.50
2017-11-08T13:43:33.460Z,7.50
2017-11-08T13:46:03.514Z,7.50
2017-11-08T13:48:31.106Z,7.50
2017-11-08T13:50:58.644Z,7.50
2017-11-08T13:53:26.190Z,7.50
2017-11-08T13:55:59.508Z,7.50
2017-11-08T13:58:27.137Z,7.50
2017-11-08T14:00:54.725Z,7.50
2017-11-08T14:03:28.878Z,7.50
2017-11-08T14:06:02.518Z,7.50
2017-11-08T14:08:33.069Z,7.50
2017-11-08T14:11:00.648Z,7.50
2017-11-08T14:13:28.196Z,7.50
2017-11-08T14:16:03.394Z,7.50
2017-11-08T14:18:30.985Z,7.50
2017-11-08T14:20:58.520Z,7.50
2017-11-08T14:23:26.091Z,7.50
2017-11-08T14:25:53.621Z,7.50
2017-11-08T14:28:21.972Z,7.50
2017-11-08T14:30:52.196Z,7.50
2017-11-08T14:33:25.455Z,7.50
2017-11-08T14:36:02.332Z,7.50
2017-11-08T14:38:29.913Z,7.50
2017-11-08T14:40:57.455Z,7.50
2017-11-08T14:43:25.044Z,7.50
2017-11-08T14:46:03.053Z,7.50
2017-11-08T14:48:32.153Z,7.50
2017-11-08T14:51:07.389Z,7.50
2017-11-08T14:53:44.013Z,7.50
2017-11-08T14:56:12.769Z,7.50
2017-11-08T14:58:41.123Z,7.50
2017-11-08T15:01:08.683Z,7.50
2017-11-08T15:03:47.888Z,7.50
2017-11-08T15:06:20.429Z,7.50
2017-11-08T15:08:48.791Z,7.50
2017-11-08T15:11:17.094Z,7.50
2017-11-08T15:13:56.661Z,7.50
2017-11-08T15:16:24.193Z,7.50
2017-11-08T15:18:51.769Z,7.50
2017-11-08T15:21:19.309Z,7.50
2017-11-08T15:24:03.484Z,7.50
2017-11-08T15:26:32.948Z,7.50
2017-11-08T15:29:01.289Z,7.50
2017-11-08T15:31:28.833Z,7.50
2017-11-08T15:34:09.707Z,7.50
2017-11-08T15:36:38.885Z,7.50
2017-11-08T15:39:07.721Z,7.50
2017-11-08T15:41:36.182Z,7.50
2017-11-08T15:44:24.217Z,7.50
2017-11-08T15:46:54.659Z,7.50
2017-11-08T15:49:22.426Z,7.50
2017-11-08T15:51:49.969Z,7.50
2017-11-08T15:54:33.498Z,7.50
2017-11-08T15:57:01.044Z,7.50
2017-11-08T15:59:28.585Z,7.50
2017-11-08T16:01:58.230Z,7.50
2017-11-08T16:04:50.670Z,7.50
2017-11-08T16:07:19.550Z,7.50
2017-11-08T16:09:47.441Z,7.40
2017-11-08T16:12:15.018Z,7.50
2017-11-08T16:14:46.131Z,7.50
2017-11-08T16:17:13.798Z,7.40
2017-11-08T16:19:41.437Z,7.40
2017-11-08T16:22:09.224Z,7.50
2017-11-08T16:24:44.910Z,7.50
2017-11-08T16:27:12.450Z,7.50
2017-11-08T16:29:40.034Z,7.40
2017-11-08T16:32:07.564Z,7.50
2017-11-08T16:34:41.676Z,7.40
2017-11-08T16:37:10.326Z,7.40
2017-11-08T16:39:38.010Z,7.40
2017-11-08T16:42:05.553Z,7.40
2017-11-08T16:44:44.391Z,7.40
2017-11-08T16:47:16.438Z,7.40
2017-11-08T16:49:44.014Z,7.40
2017-11-08T16:52:11.553Z,7.40
2017-11-08T16:54:39.136Z,7.40
2017-11-08T16:57:06.667Z,7.40
2017-11-08T16:59:34.253Z,7.40
2017-11-08T17:02:01.802Z,7.40
2017-11-08T17:04:29.338Z,7.40
2017-11-08T17:06:57.666Z,7.40
2017-11-08T17:09:25.229Z,7.40
2017-11-08T17:11:52.793Z,7.40
2017-11-08T17:14:20.337Z,7.40
2017-11-08T17:16:47.909Z,7.40
2017-11-08T17:19:15.477Z,7.40
2017-11-08T17:21:43.064Z,7.40
2017-11-08T17:24:11.373Z,7.40
2017-11-08T17:26:38.909Z,7.40
2017-11-08T17:29:07.230Z,7.40
2017-11-08T17:31:34.777Z,7.40
2017-11-08T17:34:02.355Z,7.40
2017-11-08T17:36:29.906Z,7.40
2017-11-08T17:38:57.474Z,7.40
2017-11-08T17:41:25.024Z,7.40
2017-11-08T17:43:52.585Z,7.40
2017-11-08T17:46:20.145Z,7.40
2017-11-08T17:48:47.672Z,7.40
2017-11-08T17:51:15.242Z,7.40
2017-11-08T17:53:42.843Z,7.30
2017-11-08T17:56:10.402Z,7.40
2017-11-08T17:58:37.973Z,7.30
2017-11-08T18:01:05.509Z,7.40
2017-11-08T18:03:33.078Z,7.40
2017-11-08T18:06:00.626Z,7.30
2017-11-08T18:08:28.182Z,7.30
2017-11-08T18:10:55.720Z,7.30
2017-11-08T18:13:23.296Z,7.30
2017-11-08T18:15:50.844Z,7.30
2017-11-08T18:18:18.415Z,7.40
2017-11-08T18:20:45.950Z,7.30
2017-11-08T18:23:13.525Z,7.30
2017-11-08T18:25:41.105Z,7.30
2017-11-08T18:28:08.642Z,7.30
2017-11-08T18:30:36.219Z,7.30
2017-11-08T18:33:03.766Z,7.30
2017-11-08T18:35:31.345Z,7.30
2017-11-08T18:37:58.916Z,7.30
2017-11-08T18:40:26.490Z,7.30
2017-11-08T18:42:54.074Z,7.30
2017-11-08T18:45:22.401Z,7.30
2017-11-08T18:47:49.944Z,7.30
2017-11-08T18:50:17.501Z,7.30
2017-11-08T18:52:45.042Z,7.30
2017-11-08T18:55:13.361Z,7.30
2017-11-08T18:57:43.577Z,7.30
2017-11-08T19:00:12.159Z,7.30
2017-11-08T19:02:39.704Z,7.30
2017-11-08T19:05:07.241Z,7.30
2017-11-08T19:07:34.812Z,7.30
2017-11-08T19:10:02.415Z,7.30
2017-11-08T19:12:31.286Z,7.30
2017-11-08T19:14:58.861Z,7.30
2017-11-08T19:17:26.407Z,7.30
2017-11-08T19:19:53.978Z,7.30
2017-11-08T19:22:23.902Z,7.30
2017-11-08T19:25:07.176Z,7.30
2017-11-08T19:27:47.657Z,7.30
2017-11-08T19:30:16.308Z,7.30
2017-11-08T19:32:44.623Z,7.30
2017-11-08T19:35:12.189Z,7.30
2017-11-08T19:37:39.756Z,7.20
2017-11-08T19:40:07.325Z,7.20
2017-11-08T19:42:35.521Z,7.20
2017-11-08T19:45:03.117Z,7.20
2017-11-08T19:47:43.616Z,7.20
2017-11-08T19:50:11.157Z,7.20
2017-11-08T19:55:39.671Z,7.00
2017-11-08T19:58:09.500Z,7.50
2017-11-08T20:00:47.510Z,7.50
2017-11-08T20:03:15.706Z,8.10
2017-11-08T20:05:53.918Z,8.30
2017-11-08T20:08:25.230Z,8.60
2017-11-08T20:13:50.216Z,8.60
2017-11-08T20:16:24.683Z,8.70
2017-11-08T20:18:52.227Z,8.70
2017-11-08T20:21:22.864Z,8.70
2017-11-08T20:23:51.531Z,8.70
2017-11-08T20:26:19.121Z,8.70
2017-11-08T20:28:49.643Z,8.70
2017-11-08T20:31:18.255Z,8.80
2017-11-08T20:33:54.583Z,8.70
2017-11-08T20:36:27.788Z,8.80
2017-11-08T20:38:57.973Z,8.80
2017-11-08T20:41:25.509Z,8.80
2017-11-08T20:43:57.380Z,8.80
2017-11-08T20:46:25.681Z,8.80
2017-11-08T20:48:53.246Z,8.70
2017-11-08T20:51:22.928Z,8.80
2017-11-08T20:53:51.258Z,8.80
2017-11-08T20:56:18.809Z,8.80
2017-11-08T20:58:48.215Z,8.80
2017-11-08T21:01:22.801Z,8.80
2017-11-08T21:04:05.239Z,8.70
2017-11-08T21:06:33.902Z,8.70
2017-11-08T21:09:01.487Z,8.70
2017-11-08T21:11:29.029Z,8.70
2017-11-08T21:13:56.573Z,8.70
2017-11-08T21:16:24.137Z,8.70
2017-11-08T21:18:51.682Z,8.70
2017-11-08T21:21:20.027Z,8.70
2017-11-08T21:23:47.585Z,8.70
2017-11-08T21:26:15.146Z,8.70
2017-11-08T21:28:42.706Z,8.70
2017-11-08T21:31:10.274Z,8.60
2017-11-08T21:33:39.575Z,8.60
2017-11-08T21:36:09.559Z,8.60
2017-11-08T21:38:38.470Z,8.70
2017-11-08T21:41:25.689Z,8.60
2017-11-08T21:43:55.383Z,8.60
2017-11-08T21:46:22.946Z,8.60
2017-11-08T21:48:50.509Z,8.60
2017-11-08T21:51:18.079Z,8.60
2017-11-08T21:53:45.626Z,8.60
2017-11-08T21:56:13.205Z,8.60
2017-11-08T21:58:40.754Z,8.60
2017-11-08T22:01:08.349Z,8.60
2017-11-08T22:03:36.668Z,8.50
2017-11-08T22:06:04.213Z,8.50
2017-11-08T22:08:31.792Z,8.50
2017-11-08T22:10:59.438Z,8.50
2017-11-08T22:13:27.012Z,8.50
2017-11-08T22:15:54.601Z,8.50
2017-11-08T22:18:22.145Z,8.50
2017-11-08T22:20:49.721Z,8.50
2017-11-08T22:23:17.266Z,8.50
2017-11-08T22:25:44.868Z,8.50
2017-11-08T22:28:13.196Z,8.50
2017-11-08T22:30:40.781Z,8.40
2017-11-08T22:33:08.328Z,8.50
2017-11-08T22:35:35.915Z,8.40
2017-11-08T22:38:03.466Z,8.40
2017-11-08T22:40:31.821Z,8.40
2017-11-08T22:42:59.366Z,8.40
2017-11-08T22:45:26.935Z,8.40
2017-11-08T22:47:54.525Z,8.40
2017-11-08T22:50:22.824Z,8.40
2017-11-08T22:52:51.173Z,8.40
2017-11-08T22:55:18.729Z,8.40
2017-11-08T22:57:46.314Z,8.40
2017-11-08T23:00:14.634Z,8.40
2017-11-08T23:02:42.227Z,8.40
2017-11-08T23:05:09.771Z,8.30
2017-11-08T23:07:37.358Z,8.30
2017-11-08T23:10:04.905Z,8.40
2017-11-08T23:12:32.554Z,8.30
2017-11-08T23:15:00.098Z,8.30
2017-11-08T23:17:27.892Z,8.30
2017-11-08T23:19:55.433Z,8.30
2017-11-08T23:22:22.967Z,8.30
2017-11-08T23:24:50.563Z,8.30
2017-11-08T23:27:18.163Z,8.30
2017-11-08T23:29:45.704Z,8.30
2017-11-08T23:32:13.335Z,8.30
2017-11-08T23:34:40.880Z,8.30
2017-11-08T23:37:08.470Z,8.30
2017-11-08T23:39:36.016Z,8.30
2017-11-08T23:42:03.600Z,8.20
2017-11-08T23:44:31.143Z,8.20
2017-11-08T23:46:58.685Z,8.20
2017-11-08T23:49:26.266Z,8.20
2017-11-08T23:51:53.813Z,8.20
2017-11-08T23:54:21.397Z,8.20
2017-11-08T23:56:49.755Z,8.20
2017-11-08T23:59:23.041Z,8.20
